Huddleston, Arkansas
Current Conditions -  °F | °C
As of 3:53 PM on Tuesday 21 Oct 2014 (Local Time) from KMWT Reporting Station
Clear Clear  
Wind Chill: 78°   Ceiling: Unl
Heat Index: 79°   Visibility: 10mi
Dew Point: 58°   Wind: 3mph
Humidity: 50%   Direction: 30°NNE
Pressure: 30.04"   Gusts: NA
Location:  34.6364°N, 93.829°W
Report Text: KMWT 212053Z AUTO 03003KT 10SM CLR 26/14 A3004 RMK AO2 SLP164 T02560144 56019
Loading
Personal Weather Stations






























Interactive Weather Map
Tropical Storm Tracking
New forecast layout! Learn more

10-Day Weather Forecast

Advertisements
Track Severe Weather on mobile